createdAt,value
2023-02-24T00:00:51.521Z,10.57
2023-02-24T00:02:57.116Z,11.43
2023-02-24T00:05:01.988Z,11.45
2023-02-24T00:07:07.367Z,11.40
2023-02-24T00:09:19.750Z,11.82
2023-02-24T00:11:25.082Z,10.63
2023-02-24T00:13:32.453Z,12.15
2023-02-24T00:15:38.032Z,11.55
2023-02-24T00:17:43.942Z,11.65
2023-02-24T00:19:50.259Z,10.68
2023-02-24T00:21:56.108Z,11.30
2023-02-24T00:24:02.102Z,10.45
2023-02-24T00:26:11.824Z,10.45
2023-02-24T00:28:17.321Z,10.48
2023-02-24T00:30:24.495Z,11.20
2023-02-24T00:32:29.516Z,11.52
2023-02-24T00:34:38.011Z,11.02
2023-02-24T00:36:43.676Z,11.27
2023-02-24T00:38:48.788Z,10.98
2023-02-24T00:40:55.664Z,11.30
2023-02-24T00:43:03.487Z,12.43
2023-02-24T00:47:18.877Z,11.55
2023-02-24T00:49:25.067Z,10.88
2023-02-24T00:51:29.973Z,12.02
2023-02-24T00:53:35.875Z,11.93
2023-02-24T00:55:40.788Z,10.75
2023-02-24T00:57:46.229Z,11.68
2023-02-24T00:59:54.654Z,10.93
2023-02-24T01:02:00.574Z,11.05
2023-02-24T01:04:11.615Z,11.60
2023-02-24T01:06:17.805Z,12.25
2023-02-24T01:08:24.121Z,11.77
2023-02-24T01:10:29.870Z,12.10
2023-02-24T01:12:47.288Z,12.05
2023-02-24T01:14:56.614Z,12.23
2023-02-24T01:17:02.671Z,11.57
2023-02-24T01:19:07.823Z,12.45
2023-02-24T01:21:13.904Z,11.75
2023-02-24T01:23:18.791Z,11.43
2023-02-24T01:25:25.502Z,10.95
2023-02-24T01:27:32.883Z,12.40
2023-02-24T01:29:39.845Z,12.13
2023-02-24T01:31:50.548Z,11.90
2023-02-24T01:33:57.173Z,12.00
2023-02-24T01:36:13.220Z,11.30
2023-02-24T01:38:23.461Z,11.27
2023-02-24T01:40:30.219Z,10.15
2023-02-24T01:42:36.270Z,10.32
2023-02-24T01:45:15.780Z,10.93
2023-02-24T01:47:29.091Z,10.07
2023-02-24T01:49:38.774Z,11.43
2023-02-24T01:51:50.481Z,10.45
2023-02-24T01:53:56.954Z,10.88
2023-02-24T01:56:01.878Z,11.10
2023-02-24T01:58:16.040Z,10.70
2023-02-24T02:00:32.901Z,10.73
2023-02-24T02:02:50.573Z,10.38
2023-02-24T02:05:00.304Z,11.07
2023-02-24T02:07:05.626Z,10.85
2023-02-24T02:09:15.350Z,10.48
2023-02-24T02:11:23.484Z,11.77
2023-02-24T02:13:31.455Z,10.82
2023-02-24T02:18:04.895Z,9.32
2023-02-24T02:20:37.196Z,10.45
2023-02-24T02:23:10.071Z,9.77
2023-02-24T02:25:20.865Z,11.43
2023-02-24T02:27:46.518Z,11.60
2023-02-24T02:30:33.377Z,11.13
2023-02-24T02:33:35.223Z,10.20
2023-02-24T02:35:51.843Z,10.95
2023-02-24T02:38:07.081Z,11.63
2023-02-24T02:40:21.543Z,10.48
2023-02-24T02:42:32.229Z,10.70
2023-02-24T02:44:56.332Z,10.73
2023-02-24T02:47:09.950Z,11.13
2023-02-24T02:49:22.388Z,10.95
2023-02-24T02:51:39.003Z,10.77
2023-02-24T02:53:54.057Z,11.02
2023-02-24T02:56:06.811Z,11.15
2023-02-24T02:58:17.466Z,10.70
2023-02-24T03:00:29.853Z,11.48
2023-02-24T03:02:40.063Z,11.32
2023-02-24T03:04:51.528Z,12.18
2023-02-24T03:07:04.452Z,11.18
2023-02-24T03:09:16.150Z,12.20
2023-02-24T03:11:23.098Z,12.10
2023-02-24T03:13:30.914Z,11.15
2023-02-24T03:15:37.960Z,11.82
2023-02-24T03:17:47.749Z,12.53
2023-02-24T03:20:00.402Z,12.15
2023-02-24T03:22:15.651Z,11.27
2023-02-24T03:24:21.150Z,11.57
2023-02-24T03:26:35.982Z,12.95
2023-02-24T03:28:47.729Z,11.00
2023-02-24T03:31:04.039Z,12.10
2023-02-24T03:33:19.141Z,11.93
2023-02-24T03:35:32.256Z,10.60
2023-02-24T03:37:41.802Z,11.23
2023-02-24T03:39:51.551Z,11.52
2023-02-24T03:42:07.508Z,10.38
2023-02-24T03:44:14.908Z,11.18
2023-02-24T03:46:19.936Z,10.73
2023-02-24T03:48:26.237Z,11.35
2023-02-24T03:50:34.077Z,10.82
2023-02-24T03:52:54.122Z,10.65
2023-02-24T03:55:24.326Z,10.82
2023-02-24T03:57:55.315Z,10.90
2023-02-24T04:00:22.630Z,10.10
2023-02-24T04:02:36.638Z,10.00
2023-02-24T04:04:50.125Z,9.85
2023-02-24T04:07:14.121Z,9.30
2023-02-24T04:09:30.081Z,9.82
2023-02-24T04:11:55.136Z,10.02
2023-02-24T04:14:07.808Z,8.85
2023-02-24T04:16:28.997Z,10.02
2023-02-24T04:18:35.825Z,9.35
2023-02-24T04:20:45.385Z,9.80
2023-02-24T04:22:57.048Z,10.48
2023-02-24T04:25:06.768Z,8.90
2023-02-24T04:27:15.641Z,9.63
2023-02-24T04:29:27.213Z,8.95
2023-02-24T04:31:35.670Z,8.95
2023-02-24T04:33:41.117Z,8.20
2023-02-24T04:35:50.874Z,9.10
2023-02-24T04:37:57.967Z,9.43
2023-02-24T04:40:13.258Z,9.43
2023-02-24T04:42:20.358Z,8.95
2023-02-24T04:44:26.375Z,9.65
2023-02-24T04:46:32.997Z,9.10
2023-02-24T04:48:39.095Z,9.03
2023-02-24T04:50:46.616Z,9.55
2023-02-24T04:52:54.397Z,9.60
2023-02-24T04:54:59.561Z,9.75
2023-02-24T04:57:10.948Z,8.93
2023-02-24T04:59:16.490Z,9.85
2023-02-24T05:01:22.038Z,9.15
2023-02-24T05:03:30.241Z,9.68
2023-02-24T05:05:36.254Z,9.23
2023-02-24T05:07:41.143Z,9.55
2023-02-24T05:09:47.070Z,9.48
2023-02-24T05:11:55.479Z,9.35
2023-02-24T05:14:04.674Z,9.40
2023-02-24T05:16:12.843Z,9.48
2023-02-24T05:18:20.223Z,9.90
2023-02-24T05:20:37.608Z,9.80
2023-02-24T05:22:42.508Z,8.65
2023-02-24T05:24:50.193Z,9.57
2023-02-24T05:26:58.646Z,9.27
2023-02-24T05:29:09.427Z,10.38
2023-02-24T05:31:17.682Z,9.02
2023-02-24T05:33:22.847Z,8.93
2023-02-24T05:35:28.034Z,9.63
2023-02-24T05:37:34.147Z,8.55
2023-02-24T05:39:41.395Z,9.95
2023-02-24T05:41:48.659Z,9.30
2023-02-24T05:43:57.631Z,9.60
2023-02-24T05:46:07.177Z,8.90
2023-02-24T05:48:14.948Z,8.95
2023-02-24T05:50:26.356Z,8.48
2023-02-24T05:52:31.241Z,9.95
2023-02-24T05:54:40.304Z,11.93
2023-02-24T05:56:46.166Z,15.90
2023-02-24T05:59:01.859Z,14.07
2023-02-24T06:01:19.445Z,10.55
2023-02-24T06:05:39.807Z,10.20
2023-02-24T06:07:47.298Z,10.15
2023-02-24T06:09:54.331Z,8.90
2023-02-24T06:11:59.601Z,8.57
2023-02-24T06:14:07.104Z,9.07
2023-02-24T06:16:15.261Z,8.77
2023-02-24T06:18:21.543Z,8.57
2023-02-24T06:20:27.958Z,8.88
2023-02-24T06:22:42.324Z,8.73
2023-02-24T06:24:49.510Z,8.50
2023-02-24T06:26:58.475Z,8.95
2023-02-24T06:29:05.123Z,8.32
2023-02-24T06:31:10.980Z,8.07
2023-02-24T06:33:18.599Z,8.48
2023-02-24T06:35:24.122Z,8.85
2023-02-24T06:37:30.013Z,8.98
2023-02-24T06:39:36.935Z,9.15
2023-02-24T06:41:42.597Z,9.43
2023-02-24T06:43:48.649Z,8.75
2023-02-24T06:45:54.010Z,8.75
2023-02-24T06:47:59.520Z,9.32
2023-02-24T06:50:09.791Z,9.85
2023-02-24T06:52:18.592Z,9.88
2023-02-24T06:54:25.786Z,9.90
2023-02-24T06:56:32.527Z,9.52
2023-02-24T06:58:39.204Z,9.68
2023-02-24T07:00:56.653Z,9.75
2023-02-24T07:03:08.786Z,8.85
2023-02-24T07:05:19.006Z,9.63
2023-02-24T07:07:24.342Z,9.82
2023-02-24T07:09:30.651Z,10.85
2023-02-24T07:11:37.467Z,9.25
2023-02-24T07:13:42.912Z,10.00
2023-02-24T07:15:50.182Z,9.32
2023-02-24T07:17:57.098Z,9.73
2023-02-24T07:20:11.470Z,10.82
2023-02-24T07:22:25.183Z,9.95
2023-02-24T07:24:36.691Z,10.23
2023-02-24T07:26:44.262Z,11.05
2023-02-24T07:28:50.081Z,11.35
2023-02-24T07:30:55.162Z,12.40
2023-02-24T07:33:00.213Z,9.95
2023-02-24T07:35:05.271Z,12.10
2023-02-24T07:37:10.665Z,13.13
2023-02-24T07:39:19.995Z,12.43
2023-02-24T07:41:26.448Z,10.98
2023-02-24T07:43:31.374Z,11.02
2023-02-24T07:45:37.638Z,12.80
2023-02-24T07:47:43.020Z,10.45
2023-02-24T07:49:48.007Z,11.73
2023-02-24T07:51:58.123Z,12.27
2023-02-24T07:54:08.604Z,11.25
2023-02-24T07:56:20.366Z,11.75
2023-02-24T07:58:28.458Z,13.27
2023-02-24T08:00:50.189Z,13.45
2023-02-24T08:03:00.274Z,12.55
2023-02-24T08:05:09.200Z,12.48
2023-02-24T08:07:15.300Z,14.38
2023-02-24T08:09:43.692Z,11.68
2023-02-24T08:11:53.907Z,13.23
2023-02-24T08:13:59.280Z,11.85
2023-02-24T08:16:04.382Z,13.00
2023-02-24T08:18:09.464Z,12.07
2023-02-24T08:20:26.485Z,13.40
2023-02-24T08:22:37.363Z,12.25
2023-02-24T08:24:43.656Z,11.73
2023-02-24T08:27:04.825Z,11.98
2023-02-24T08:29:09.785Z,11.25
2023-02-24T08:31:15.299Z,12.57
2023-02-24T08:33:23.577Z,12.60
2023-02-24T08:35:35.874Z,8.88
2023-02-24T08:37:47.071Z,12.70
2023-02-24T08:39:56.562Z,12.32
2023-02-24T08:42:04.118Z,12.18
2023-02-24T08:44:10.277Z,11.93
2023-02-24T08:46:27.120Z,10.57
2023-02-24T08:48:42.510Z,11.93
2023-02-24T08:50:49.067Z,8.18
2023-02-24T08:52:54.372Z,9.63
2023-02-24T08:55:01.760Z,9.95
2023-02-24T08:57:15.269Z,9.35
2023-02-24T08:59:35.183Z,11.50
2023-02-24T09:02:04.396Z,10.52
2023-02-24T09:04:19.129Z,10.15
2023-02-24T09:06:38.488Z,6.85
2023-02-24T09:08:43.831Z,9.55
2023-02-24T09:10:48.723Z,9.68
2023-02-24T09:13:01.266Z,10.75
2023-02-24T09:15:07.678Z,8.25
2023-02-24T09:17:20.675Z,9.57
2023-02-24T09:20:03.029Z,11.48
2023-02-24T09:22:21.266Z,11.13
2023-02-24T09:24:29.824Z,11.23
2023-02-24T09:26:44.178Z,11.75
2023-02-24T09:28:54.963Z,10.60
2023-02-24T09:31:05.210Z,9.13
2023-02-24T09:33:23.576Z,9.93
2023-02-24T09:35:31.102Z,11.60
2023-02-24T09:37:37.648Z,11.38
2023-02-24T09:39:55.285Z,10.98
2023-02-24T09:42:26.893Z,9.43
2023-02-24T09:44:39.220Z,8.65
2023-02-24T09:46:54.269Z,7.53
2023-02-24T09:49:08.699Z,8.80
2023-02-24T09:51:21.987Z,8.75
2023-02-24T09:53:29.581Z,9.07
2023-02-24T09:55:46.624Z,9.38
2023-02-24T09:58:26.962Z,9.80
2023-02-24T10:00:44.313Z,9.35
2023-02-24T10:03:00.596Z,9.68
2023-02-24T10:05:16.770Z,8.57
2023-02-24T10:07:39.560Z,7.90
2023-02-24T10:09:52.364Z,9.43
2023-02-24T10:12:04.897Z,7.70
2023-02-24T10:14:19.595Z,3.47
2023-02-24T10:16:41.537Z,5.57
2023-02-24T10:19:01.586Z,6.55
2023-02-24T10:21:20.293Z,6.20
2023-02-24T10:23:37.138Z,6.55
2023-02-24T10:25:55.653Z,4.50
2023-02-24T10:28:10.301Z,4.07
2023-02-24T10:30:40.802Z,4.50
2023-02-24T10:32:58.825Z,6.28
2023-02-24T10:35:06.278Z,7.43
2023-02-24T10:37:28.278Z,7.43
2023-02-24T10:39:34.412Z,7.70
2023-02-24T10:41:49.227Z,6.40
2023-02-24T10:43:58.320Z,6.63
2023-02-24T10:46:18.690Z,5.88
2023-02-24T10:48:41.516Z,7.30
2023-02-24T10:50:55.976Z,5.05
2023-02-24T10:53:26.901Z,4.32
2023-02-24T10:55:53.548Z,6.40
2023-02-24T10:58:06.436Z,6.83
2023-02-24T11:00:52.032Z,5.25
2023-02-24T11:03:21.989Z,4.93
2023-02-24T11:05:39.074Z,6.90
2023-02-24T11:07:53.990Z,5.90
2023-02-24T11:10:13.968Z,6.78
2023-02-24T11:12:36.651Z,5.57
2023-02-24T11:15:06.481Z,5.47
2023-02-24T11:17:27.160Z,4.63
2023-02-24T11:19:34.017Z,5.50
2023-02-24T11:21:42.809Z,5.60
2023-02-24T11:23:51.948Z,4.68
2023-02-24T11:26:04.683Z,6.35
2023-02-24T11:28:26.569Z,4.68
2023-02-24T11:30:43.778Z,4.20
2023-02-24T11:33:09.216Z,5.85
2023-02-24T11:35:21.235Z,5.30
2023-02-24T11:37:41.873Z,5.00
2023-02-24T11:39:58.022Z,3.63
2023-02-24T11:42:07.558Z,4.50
2023-02-24T11:44:20.560Z,5.60
2023-02-24T11:46:39.473Z,4.93
2023-02-24T11:48:51.919Z,5.47
2023-02-24T11:51:03.584Z,6.82
2023-02-24T11:53:26.839Z,4.03
2023-02-24T11:55:38.882Z,4.85
2023-02-24T11:57:51.017Z,5.43
2023-02-24T12:00:13.181Z,5.90
2023-02-24T12:02:31.080Z,4.30
2023-02-24T12:04:43.444Z,4.10
2023-02-24T12:06:59.882Z,6.70
2023-02-24T12:09:17.251Z,6.05
2023-02-24T12:11:34.317Z,6.07
2023-02-24T12:13:45.215Z,6.55
2023-02-24T12:15:58.495Z,4.78
2023-02-24T12:18:13.998Z,5.47
2023-02-24T12:20:25.898Z,5.47
2023-02-24T12:22:44.685Z,7.00
2023-02-24T12:24:55.253Z,4.55
2023-02-24T12:27:18.458Z,4.20
2023-02-24T12:29:53.973Z,5.78
2023-02-24T12:32:15.944Z,3.92
2023-02-24T12:34:32.323Z,3.67
2023-02-24T12:37:07.814Z,4.10
2023-02-24T12:39:18.161Z,2.95
2023-02-24T12:41:45.177Z,4.40
2023-02-24T12:44:01.355Z,3.70
2023-02-24T12:46:17.611Z,4.03
2023-02-24T12:48:45.770Z,4.15
2023-02-24T12:51:02.178Z,4.00
2023-02-24T12:53:16.042Z,4.85
2023-02-24T12:55:28.117Z,5.63
2023-02-24T12:57:47.340Z,5.43
2023-02-24T12:59:53.155Z,3.88
2023-02-24T13:02:05.454Z,6.18
2023-02-24T13:04:26.717Z,5.47
2023-02-24T13:06:46.656Z,4.25
2023-02-24T13:09:01.814Z,5.50
2023-02-24T13:11:20.284Z,3.72
2023-02-24T13:13:37.683Z,4.57
2023-02-24T13:15:54.131Z,3.75
2023-02-24T13:17:59.040Z,4.20
2023-02-24T13:20:15.162Z,3.92
2023-02-24T13:24:39.265Z,6.38
2023-02-24T13:26:44.177Z,3.85
2023-02-24T13:29:03.592Z,5.38
2023-02-24T13:31:12.190Z,5.60
2023-02-24T13:33:32.659Z,4.50
2023-02-24T13:35:39.403Z,4.43
2023-02-24T13:37:46.726Z,4.70
2023-02-24T13:39:51.635Z,5.15
2023-02-24T13:42:07.286Z,3.25
2023-02-24T13:44:30.455Z,3.53
2023-02-24T13:46:55.894Z,4.68
2023-02-24T13:49:26.791Z,3.72
2023-02-24T13:51:59.288Z,3.28
2023-02-24T13:54:21.673Z,4.35
2023-02-24T13:56:40.699Z,4.13
2023-02-24T13:59:14.012Z,4.47
2023-02-24T14:01:24.134Z,4.45
2023-02-24T14:03:32.254Z,5.22
2023-02-24T14:07:43.295Z,4.45
2023-02-24T14:09:53.672Z,3.65
2023-02-24T14:12:03.624Z,5.10
2023-02-24T14:14:09.097Z,4.22
2023-02-24T14:16:17.293Z,4.20
2023-02-24T14:18:27.830Z,4.63
2023-02-24T14:20:38.388Z,3.83
2023-02-24T14:22:48.311Z,2.22
2023-02-24T14:25:03.779Z,2.83
2023-02-24T14:27:08.643Z,6.13
2023-02-24T14:29:17.157Z,2.53
2023-02-24T14:33:39.891Z,3.20
2023-02-24T14:35:48.840Z,3.45
2023-02-24T14:37:53.834Z,3.58
2023-02-24T14:40:05.944Z,4.18
2023-02-24T14:42:17.806Z,3.88
2023-02-24T14:44:27.040Z,4.22
2023-02-24T14:46:32.362Z,4.13
2023-02-24T14:48:40.494Z,3.63
2023-02-24T14:52:56.348Z,4.70
2023-02-24T14:55:06.252Z,4.18
2023-02-24T14:57:16.099Z,5.20
2023-02-24T14:59:31.347Z,4.80
2023-02-24T15:01:40.788Z,5.60
2023-02-24T15:03:52.729Z,4.93
2023-02-24T15:06:03.040Z,5.60
2023-02-24T15:08:07.985Z,5.75
2023-02-24T15:10:24.522Z,5.93
2023-02-24T15:12:35.060Z,5.10
2023-02-24T15:14:40.390Z,5.03
2023-02-24T15:16:48.112Z,5.28
2023-02-24T15:19:01.024Z,5.78
2023-02-24T15:21:09.057Z,5.18
2023-02-24T15:23:30.970Z,5.22
2023-02-24T15:25:48.094Z,5.10
2023-02-24T15:27:55.521Z,4.68
2023-02-24T15:30:04.655Z,6.25
2023-02-24T15:32:23.337Z,5.60
2023-02-24T15:34:37.416Z,5.80
2023-02-24T15:36:42.398Z,5.20
2023-02-24T15:38:48.182Z,5.93
2023-02-24T15:40:55.971Z,6.72
2023-02-24T15:43:03.545Z,6.15
2023-02-24T15:45:27.042Z,5.65
2023-02-24T15:47:43.535Z,6.35
2023-02-24T15:49:51.025Z,5.95
2023-02-24T15:51:59.920Z,4.70
2023-02-24T15:54:07.556Z,5.88
2023-02-24T15:56:12.532Z,6.60
2023-02-24T15:58:20.823Z,6.30
2023-02-24T16:00:26.897Z,6.13
2023-02-24T16:02:34.387Z,6.07
2023-02-24T16:04:39.260Z,5.45
2023-02-24T16:06:54.966Z,5.90
2023-02-24T16:09:05.321Z,5.80
2023-02-24T16:11:11.051Z,5.88
2023-02-24T16:13:26.347Z,7.03
2023-02-24T16:15:33.456Z,6.55
2023-02-24T16:17:41.455Z,6.03
2023-02-24T16:19:46.721Z,6.45
2023-02-24T16:21:55.582Z,7.15
2023-02-24T16:24:00.493Z,6.97
2023-02-24T16:26:05.588Z,7.22
2023-02-24T16:28:16.243Z,5.97
2023-02-24T16:30:23.160Z,6.35
2023-02-24T16:32:29.702Z,6.20
2023-02-24T16:34:35.243Z,6.22
2023-02-24T16:36:40.480Z,5.70
2023-02-24T16:38:51.700Z,5.63
2023-02-24T16:40:59.239Z,5.03
2023-02-24T16:43:04.500Z,5.35
2023-02-24T16:45:12.866Z,5.20
2023-02-24T16:47:21.928Z,5.85
2023-02-24T16:49:26.964Z,4.72
2023-02-24T16:51:32.488Z,4.85
2023-02-24T16:53:39.303Z,5.35
2023-02-24T16:55:47.533Z,5.07
2023-02-24T16:57:52.432Z,5.03
2023-02-24T16:59:58.050Z,5.22
2023-02-24T17:02:03.044Z,5.78
2023-02-24T17:04:11.863Z,4.70
2023-02-24T17:06:17.034Z,5.88
2023-02-24T17:08:22.271Z,6.07
2023-02-24T17:10:28.466Z,5.55
2023-02-24T17:12:38.411Z,6.78
2023-02-24T17:14:43.722Z,7.28
2023-02-24T17:16:49.111Z,5.43
2023-02-24T17:18:54.046Z,5.30
2023-02-24T17:20:59.724Z,5.80
2023-02-24T17:23:04.772Z,6.18
2023-02-24T17:25:14.129Z,6.68
2023-02-24T17:27:20.039Z,7.22
2023-02-24T17:29:27.812Z,7.60
2023-02-24T17:31:33.482Z,8.23
2023-02-24T17:33:38.844Z,8.43
2023-02-24T17:35:44.031Z,8.07
2023-02-24T17:37:49.003Z,8.52
2023-02-24T17:39:54.649Z,8.80
2023-02-24T17:41:59.543Z,9.00
2023-02-24T17:44:05.291Z,8.88
2023-02-24T17:46:13.230Z,8.90
2023-02-24T17:48:19.586Z,6.93
2023-02-24T17:50:24.549Z,6.85
2023-02-24T17:52:29.941Z,7.50
2023-02-24T17:54:35.498Z,7.25
2023-02-24T17:56:41.537Z,8.13
2023-02-24T17:58:46.439Z,7.55
2023-02-24T18:00:51.375Z,7.85
2023-02-24T18:03:01.060Z,8.18
2023-02-24T18:05:08.248Z,7.50
2023-02-24T18:07:15.098Z,6.90
2023-02-24T18:09:20.721Z,7.43
2023-02-24T18:11:26.000Z,7.80
2023-02-24T18:13:32.484Z,7.63
2023-02-24T18:15:40.288Z,7.43
2023-02-24T18:17:45.967Z,7.32
2023-02-24T18:19:58.108Z,7.13
2023-02-24T18:22:03.461Z,7.75
2023-02-24T18:24:09.296Z,7.95
2023-02-24T18:26:15.776Z,7.10
2023-02-24T18:28:20.658Z,7.97
2023-02-24T18:30:26.874Z,6.88
2023-02-24T18:32:32.295Z,7.63
2023-02-24T18:34:37.340Z,7.15
2023-02-24T18:36:44.807Z,5.53
2023-02-24T18:38:49.737Z,5.78
2023-02-24T18:41:00.910Z,6.10
2023-02-24T18:43:06.490Z,6.28
2023-02-24T18:45:13.535Z,6.45
2023-02-24T18:47:18.479Z,6.70
2023-02-24T18:49:23.421Z,6.22
2023-02-24T18:51:32.566Z,6.00
2023-02-24T18:53:40.722Z,5.68
2023-02-24T18:55:45.601Z,5.35
2023-02-24T18:57:50.475Z,6.22
2023-02-24T18:59:55.594Z,5.78
2023-02-24T19:02:00.546Z,6.25
2023-02-24T19:04:06.931Z,6.50
2023-02-24T19:06:13.100Z,6.93
2023-02-24T19:08:18.235Z,5.47
2023-02-24T19:10:26.136Z,7.22
2023-02-24T19:12:31.033Z,7.82
2023-02-24T19:14:37.310Z,8.50
2023-02-24T19:16:42.549Z,9.70
2023-02-24T19:18:48.192Z,7.28
2023-02-24T19:20:53.298Z,8.23
2023-02-24T19:22:58.293Z,8.30
2023-02-24T19:25:05.915Z,6.43
2023-02-24T19:27:14.245Z,7.13
2023-02-24T19:29:20.511Z,7.63
2023-02-24T19:31:28.228Z,8.30
2023-02-24T19:33:33.159Z,7.53
2023-02-24T19:35:42.640Z,6.43
2023-02-24T19:37:49.913Z,7.85
2023-02-24T19:39:56.046Z,7.88
2023-02-24T19:42:00.953Z,7.65
2023-02-24T19:44:10.266Z,6.65
2023-02-24T19:46:17.478Z,6.63
2023-02-24T19:48:22.495Z,6.68
2023-02-24T19:50:27.964Z,6.80
2023-02-24T19:52:32.860Z,8.40
2023-02-24T19:54:37.786Z,5.28
2023-02-24T19:56:44.072Z,4.75
2023-02-24T19:58:48.946Z,5.57
2023-02-24T20:00:56.573Z,7.90
2023-02-24T20:03:01.461Z,7.85
2023-02-24T20:05:07.315Z,7.93
2023-02-24T20:07:12.234Z,7.78
2023-02-24T20:09:21.383Z,7.28
2023-02-24T20:11:28.769Z,7.50
2023-02-24T20:13:34.511Z,8.05
2023-02-24T20:15:39.376Z,7.32
2023-02-24T20:17:49.682Z,7.40
2023-02-24T20:19:54.660Z,7.45
2023-02-24T20:21:59.533Z,8.13
2023-02-24T20:24:07.140Z,8.27
2023-02-24T20:26:16.412Z,8.77
2023-02-24T20:28:22.200Z,8.32
2023-02-24T20:30:27.084Z,8.38
2023-02-24T20:32:32.378Z,9.32
2023-02-24T20:34:41.539Z,7.22
2023-02-24T20:36:46.875Z,7.55
2023-02-24T20:38:52.878Z,7.43
2023-02-24T20:41:01.181Z,8.52
2023-02-24T20:43:07.081Z,8.68
2023-02-24T20:45:13.135Z,8.45
2023-02-24T20:47:19.204Z,8.20
2023-02-24T20:49:24.298Z,8.60
2023-02-24T20:51:34.751Z,8.98
2023-02-24T20:53:56.011Z,8.45
2023-02-24T20:56:06.035Z,7.28
2023-02-24T20:58:11.178Z,7.70
2023-02-24T21:00:17.692Z,7.97
2023-02-24T21:02:22.569Z,6.72
2023-02-24T21:04:27.630Z,8.93
2023-02-24T21:06:35.370Z,7.88
2023-02-24T21:08:41.108Z,7.82
2023-02-24T21:10:47.084Z,8.23
2023-02-24T21:12:52.670Z,7.82
2023-02-24T21:14:57.562Z,8.48
2023-02-24T21:17:02.503Z,7.47
2023-02-24T21:19:08.099Z,7.82
2023-02-24T21:21:15.387Z,8.15
2023-02-24T21:23:23.969Z,7.78
2023-02-24T21:25:29.836Z,7.43
2023-02-24T21:27:34.763Z,7.40
2023-02-24T21:29:40.064Z,8.90
2023-02-24T21:31:45.576Z,5.13
2023-02-24T21:33:54.154Z,8.73
2023-02-24T21:36:03.593Z,7.82
2023-02-24T21:38:08.599Z,8.35
2023-02-24T21:40:18.162Z,8.25
2023-02-24T21:42:23.399Z,6.82
2023-02-24T21:44:28.444Z,6.82
2023-02-24T21:46:33.491Z,7.32
2023-02-24T21:48:43.079Z,8.70
2023-02-24T21:51:03.752Z,6.22
2023-02-24T21:53:09.177Z,8.05
2023-02-24T21:55:19.582Z,8.30
2023-02-24T21:57:24.594Z,7.25
2023-02-24T21:59:29.589Z,7.32
2023-02-24T22:01:37.214Z,6.72
2023-02-24T22:03:42.640Z,6.85
2023-02-24T22:05:52.802Z,6.75
2023-02-24T22:07:58.104Z,7.55
2023-02-24T22:10:02.975Z,7.80
2023-02-24T22:12:10.511Z,7.68
2023-02-24T22:16:26.117Z,7.35
2023-02-24T22:18:31.655Z,8.07
2023-02-24T22:20:36.537Z,7.18
2023-02-24T22:22:45.186Z,7.10
2023-02-24T22:24:51.583Z,7.45
2023-02-24T22:26:56.495Z,7.55
2023-02-24T22:29:05.421Z,7.47
2023-02-24T22:31:12.479Z,7.47
2023-02-24T22:33:17.445Z,7.55
2023-02-24T22:35:22.716Z,5.07
2023-02-24T22:37:27.873Z,5.72
2023-02-24T22:39:32.852Z,6.07
2023-02-24T22:41:38.993Z,6.35
2023-02-24T22:43:44.007Z,5.10
2023-02-24T22:46:00.637Z,4.72
2023-02-24T22:48:05.989Z,4.90
2023-02-24T22:50:13.626Z,4.10
